sensor_id;sensor_type;location;lat;lon;timestamp;pressure;altitude;pressure_sealevel;temperature;humidity
69850;BME280;57144;39.652;-75.770;2022-09-09T05:45:11;100665.22;;;16.70;100.00
69850;BME280;57144;39.652;-75.770;2022-09-09T05:47:41;100661.95;;;17.06;100.00
69850;BME280;57144;39.652;-75.770;2022-09-09T05:50:12;100657.73;;;17.03;100.00
69850;BME280;57144;39.652;-75.770;2022-09-09T05:52:43;100654.98;;;17.14;100.00
69850;BME280;57144;39.652;-75.770;2022-09-09T05:55:13;100655.64;;;17.28;100.00
69850;BME280;57144;39.652;-75.770;2022-09-09T05:57:48;100652.73;;;17.05;100.00
69850;BME280;57144;39.652;-75.770;2022-09-09T06:00:15;100650.29;;;16.95;100.00
69850;BME280;57144;39.652;-75.770;2022-09-09T06:02:50;100645.94;;;16.80;100.00
69850;BME280;57144;39.652;-75.770;2022-09-09T06:05:16;100642.92;;;16.95;100.00
69850;BME280;57144;39.652;-75.770;2022-09-09T06:07:46;100636.97;;;16.83;100.00
69850;BME280;57144;39.652;-75.770;2022-09-09T06:10:17;100635.18;;;16.74;100.00
69850;BME280;57144;39.652;-75.770;2022-09-09T06:12:48;100637.71;;;16.64;100.00
69850;BME280;57144;39.652;-75.770;2022-09-09T06:15:19;100636.00;;;16.47;100.00
69850;BME280;57144;39.652;-75.770;2022-09-09T06:17:54;100644.66;;;16.66;100.00
69850;BME280;57144;39.652;-75.770;2022-09-09T06:20:20;100648.94;;;16.54;100.00
69850;BME280;57144;39.652;-75.770;2022-09-09T06:22:50;100649.10;;;16.39;100.00
69850;BME280;57144;39.652;-75.770;2022-09-09T06:25:21;100648.81;;;15.78;100.00
69850;BME280;57144;39.652;-75.770;2022-09-09T06:27:51;100651.00;;;16.24;100.00
69850;BME280;57144;39.652;-75.770;2022-09-09T06:30:22;100650.59;;;15.91;100.00
69850;BME280;57144;39.652;-75.770;2022-09-09T06:32:55;100652.19;;;16.31;100.00
69850;BME280;57144;39.652;-75.770;2022-09-09T06:35:23;100657.21;;;16.48;100.00
69850;BME280;57144;39.652;-75.770;2022-09-09T06:37:54;100659.00;;;16.48;100.00
69850;BME280;57144;39.652;-75.770;2022-09-09T06:40:25;100661.50;;;16.13;100.00
69850;BME280;57144;39.652;-75.770;2022-09-09T06:42:59;100659.95;;;16.28;100.00
69850;BME280;57144;39.652;-75.770;2022-09-09T06:45:26;100658.90;;;16.30;100.00
69850;BME280;57144;39.652;-75.770;2022-09-09T06:47:56;100654.77;;;16.35;100.00
69850;BME280;57144;39.652;-75.770;2022-09-09T06:50:27;100651.47;;;16.47;100.00
69850;BME280;57144;39.652;-75.770;2022-09-09T06:52:57;100651.77;;;16.29;100.00
69850;BME280;57144;39.652;-75.770;2022-09-09T06:55:28;100656.51;;;16.26;100.00
69850;BME280;57144;39.652;-75.770;2022-09-09T06:57:58;100656.27;;;16.33;100.00
69850;BME280;57144;39.652;-75.770;2022-09-09T07:00:29;100661.16;;;16.19;100.00
69850;BME280;57144;39.652;-75.770;2022-09-09T07:02:59;100657.37;;;16.05;100.00
69850;BME280;57144;39.652;-75.770;2022-09-09T07:05:31;100655.97;;;16.19;100.00
69850;BME280;57144;39.652;-75.770;2022-09-09T07:08:01;100656.57;;;15.90;100.00
69850;BME280;57144;39.652;-75.770;2022-09-09T07:10:32;100660.12;;;16.14;100.00
69850;BME280;57144;39.652;-75.770;2022-09-09T07:13:02;100659.63;;;16.08;100.00
69850;BME280;57144;39.652;-75.770;2022-09-09T07:15:33;100659.21;;;16.04;100.00
69850;BME280;57144;39.652;-75.770;2022-09-09T07:18:03;100663.92;;;16.16;100.00
69850;BME280;57144;39.652;-75.770;2022-09-09T07:20:34;100666.72;;;16.22;100.00
69850;BME280;57144;39.652;-75.770;2022-09-09T07:23:04;100664.16;;;16.15;100.00
69850;BME280;57144;39.652;-75.770;2022-09-09T07:25:35;100663.74;;;16.25;100.00
69850;BME280;57144;39.652;-75.770;2022-09-09T07:28:05;100665.98;;;16.19;100.00
69850;BME280;57144;39.652;-75.770;2022-09-09T07:30:36;100661.32;;;16.03;100.00
69850;BME280;57144;39.652;-75.770;2022-09-09T07:33:07;100659.07;;;16.00;100.00
69850;BME280;57144;39.652;-75.770;2022-09-09T07:35:37;100663.82;;;16.09;100.00
69850;BME280;57144;39.652;-75.770;2022-09-09T07:38:08;100667.77;;;15.94;100.00
69850;BME280;57144;39.652;-75.770;2022-09-09T07:40:38;100672.32;;;15.97;100.00
69850;BME280;57144;39.652;-75.770;2022-09-09T07:43:09;100675.29;;;16.01;100.00
69850;BME280;57144;39.652;-75.770;2022-09-09T07:45:40;100674.72;;;15.88;100.00
69850;BME280;57144;39.652;-75.770;2022-09-09T07:48:10;100675.52;;;15.85;100.00
69850;BME280;57144;39.652;-75.770;2022-09-09T07:50:41;100673.67;;;15.82;100.00
69850;BME280;57144;39.652;-75.770;2022-09-09T07:53:11;100675.70;;;15.89;100.00
69850;BME280;57144;39.652;-75.770;2022-09-09T07:55:42;100676.73;;;15.39;100.00
69850;BME280;57144;39.652;-75.770;2022-09-09T07:58:12;100672.65;;;15.49;100.00
69850;BME280;57144;39.652;-75.770;2022-09-09T08:00:43;100665.30;;;15.59;100.00
69850;BME280;57144;39.652;-75.770;2022-09-09T08:03:14;100663.11;;;15.55;100.00
69850;BME280;57144;39.652;-75.770;2022-09-09T08:08:15;100663.20;;;15.77;100.00
69850;BME280;57144;39.652;-75.770;2022-09-09T08:10:45;100666.40;;;15.84;100.00
69850;BME280;57144;39.652;-75.770;2022-09-09T08:13:16;100668.23;;;15.66;100.00
69850;BME280;57144;39.652;-75.770;2022-09-09T08:15:47;100669.76;;;15.90;100.00
69850;BME280;57144;39.652;-75.770;2022-09-09T08:18:17;100668.75;;;15.81;100.00
69850;BME280;57144;39.652;-75.770;2022-09-09T08:20:48;100669.73;;;15.61;100.00
69850;BME280;57144;39.652;-75.770;2022-09-09T08:23:18;100668.33;;;15.18;100.00
69850;BME280;57144;39.652;-75.770;2022-09-09T08:25:49;100671.97;;;15.21;100.00
69850;BME280;57144;39.652;-75.770;2022-09-09T08:28:19;100674.33;;;15.52;100.00
69850;BME280;57144;39.652;-75.770;2022-09-09T08:30:50;100670.75;;;15.65;100.00
69850;BME280;57144;39.652;-75.770;2022-09-09T08:33:20;100668.58;;;15.19;100.00
69850;BME280;57144;39.652;-75.770;2022-09-09T08:35:53;100665.89;;;15.74;100.00
69850;BME280;57144;39.652;-75.770;2022-09-09T08:38:23;100662.72;;;15.57;100.00
69850;BME280;57144;39.652;-75.770;2022-09-09T08:40:53;100669.80;;;15.46;100.00
69850;BME280;57144;39.652;-75.770;2022-09-09T08:43:24;100671.30;;;15.08;100.00
69850;BME280;57144;39.652;-75.770;2022-09-09T08:45:57;100672.79;;;15.26;100.00
69850;BME280;57144;39.652;-75.770;2022-09-09T08:48:39;100675.37;;;14.77;100.00
69850;BME280;57144;39.652;-75.770;2022-09-09T08:50:54;100677.54;;;14.61;100.00
69850;BME280;57144;39.652;-75.770;2022-09-09T08:53:28;100679.06;;;15.59;100.00
69850;BME280;57144;39.652;-75.770;2022-09-09T08:55:57;100677.24;;;15.57;100.00
69850;BME280;57144;39.652;-75.770;2022-09-09T08:58:27;100677.85;;;15.14;100.00
69850;BME280;57144;39.652;-75.770;2022-09-09T09:01:12;100682.01;;;15.26;100.00
69850;BME280;57144;39.652;-75.770;2022-09-09T09:03:35;100684.40;;;15.24;100.00
69850;BME280;57144;39.652;-75.770;2022-09-09T09:06:03;100682.93;;;15.41;100.00
69850;BME280;57144;39.652;-75.770;2022-09-09T09:08:35;100683.07;;;15.05;100.00
69850;BME280;57144;39.652;-75.770;2022-09-09T09:10:58;100689.03;;;15.36;100.00
69850;BME280;57144;39.652;-75.770;2022-09-09T09:13:37;100691.65;;;15.07;100.00
69850;BME280;57144;39.652;-75.770;2022-09-09T09:16:03;100693.37;;;15.14;100.00
69850;BME280;57144;39.652;-75.770;2022-09-09T09:18:31;100694.21;;;15.29;100.00
69850;BME280;57144;39.652;-75.770;2022-09-09T09:21:07;100696.15;;;15.38;100.00
69850;BME280;57144;39.652;-75.770;2022-09-09T09:23:35;100698.51;;;15.42;100.00
69850;BME280;57144;39.652;-75.770;2022-09-09T09:26:06;100702.52;;;15.27;100.00
69850;BME280;57144;39.652;-75.770;2022-09-09T09:28:33;100702.69;;;15.14;100.00
69850;BME280;57144;39.652;-75.770;2022-09-09T09:31:06;100708.50;;;15.36;100.00
69850;BME280;57144;39.652;-75.770;2022-09-09T09:33:44;100711.72;;;15.43;100.00
69850;BME280;57144;39.652;-75.770;2022-09-09T09:36:04;100714.92;;;15.08;100.00
69850;BME280;57144;39.652;-75.770;2022-09-09T09:38:36;100718.71;;;15.04;100.00
69850;BME280;57144;39.652;-75.770;2022-09-09T09:41:05;100720.60;;;15.30;100.00
69850;BME280;57144;39.652;-75.770;2022-09-09T09:43:37;100719.00;;;15.27;100.00
69850;BME280;57144;39.652;-75.770;2022-09-09T09:48:37;100718.00;;;14.71;100.00
69850;BME280;57144;39.652;-75.770;2022-09-09T09:51:11;100716.27;;;15.34;100.00
69850;BME280;57144;39.652;-75.770;2022-09-09T09:53:39;100721.53;;;14.83;100.00
69850;BME280;57144;39.652;-75.770;2022-09-09T09:56:10;100727.24;;;15.12;100.00
69850;BME280;57144;39.652;-75.770;2022-09-09T09:58:49;100733.62;;;14.95;100.00
69850;BME280;57144;39.652;-75.770;2022-09-09T10:01:18;100735.36;;;14.81;100.00
69850;BME280;57144;39.652;-75.770;2022-09-09T10:03:50;100741.02;;;15.22;100.00
69850;BME280;57144;39.652;-75.770;2022-09-09T10:06:11;100743.76;;;15.43;100.00
69850;BME280;57144;39.652;-75.770;2022-09-09T10:08:45;100746.40;;;15.53;100.00
69850;BME280;57144;39.652;-75.770;2022-09-09T10:11:24;100750.79;;;15.53;100.00
69850;BME280;57144;39.652;-75.770;2022-09-09T10:13:51;100752.55;;;15.38;100.00
69850;BME280;57144;39.652;-75.770;2022-09-09T10:16:25;100755.87;;;15.36;100.00
69850;BME280;57144;39.652;-75.770;2022-09-09T10:18:54;100756.90;;;15.31;100.00
69850;BME280;57144;39.652;-75.770;2022-09-09T10:21:22;100756.80;;;15.40;100.00
69850;BME280;57144;39.652;-75.770;2022-09-09T10:23:58;100765.32;;;15.23;100.00
69850;BME280;57144;39.652;-75.770;2022-09-09T10:26:28;100766.28;;;15.22;100.00
69850;BME280;57144;39.652;-75.770;2022-09-09T10:29:03;100774.85;;;15.25;100.00
69850;BME280;57144;39.652;-75.770;2022-09-09T10:31:22;100774.80;;;14.95;100.00
69850;BME280;57144;39.652;-75.770;2022-09-09T10:33:53;100783.90;;;14.91;100.00
69850;BME280;57144;39.652;-75.770;2022-09-09T10:36:21;100783.70;;;15.10;100.00
69850;BME280;57144;39.652;-75.770;2022-09-09T10:38:54;100789.74;;;15.17;100.00
69850;BME280;57144;39.652;-75.770;2022-09-09T10:41:31;100794.48;;;15.35;100.00
69850;BME280;57144;39.652;-75.770;2022-09-09T10:44:04;100796.16;;;15.24;100.00
69850;BME280;57144;39.652;-75.770;2022-09-09T10:46:26;100796.31;;;15.11;100.00
69850;BME280;57144;39.652;-75.770;2022-09-09T10:49:03;100799.45;;;15.32;100.00
69850;BME280;57144;39.652;-75.770;2022-09-09T10:51:30;100808.91;;;15.27;100.00
69850;BME280;57144;39.652;-75.770;2022-09-09T10:56:24;100816.57;;;15.18;100.00
69850;BME280;57144;39.652;-75.770;2022-09-09T10:58:58;100825.81;;;14.99;100.00
69850;BME280;57144;39.652;-75.770;2022-09-09T11:01:27;100830.65;;;15.03;100.00
69850;BME280;57144;39.652;-75.770;2022-09-09T11:04:01;100838.60;;;15.03;100.00
69850;BME280;57144;39.652;-75.770;2022-09-09T11:06:31;100843.91;;;14.44;100.00
69850;BME280;57144;39.652;-75.770;2022-09-09T11:08:58;100850.40;;;14.17;100.00
69850;BME280;57144;39.652;-75.770;2022-09-09T11:11:29;100853.17;;;15.10;100.00
69850;BME280;57144;39.652;-75.770;2022-09-09T11:14:02;100859.44;;;14.91;100.00
69850;BME280;57144;39.652;-75.770;2022-09-09T11:16:31;100859.34;;;15.00;100.00
69850;BME280;57144;39.652;-75.770;2022-09-09T11:19:04;100860.44;;;14.85;100.00
69850;BME280;57144;39.652;-75.770;2022-09-09T11:21:33;100860.45;;;15.26;100.00
69850;BME280;57144;39.652;-75.770;2022-09-09T11:24:04;100860.36;;;15.12;100.00
69850;BME280;57144;39.652;-75.770;2022-09-09T11:26:33;100857.88;;;15.43;100.00
69850;BME280;57144;39.652;-75.770;2022-09-09T11:29:16;100863.82;;;15.22;100.00
69850;BME280;57144;39.652;-75.770;2022-09-09T11:31:43;100870.08;;;14.96;100.00
69850;BME280;57144;39.652;-75.770;2022-09-09T11:34:17;100873.99;;;14.82;100.00
69850;BME280;57144;39.652;-75.770;2022-09-09T11:36:44;100877.68;;;15.44;100.00
69850;BME280;57144;39.652;-75.770;2022-09-09T11:39:17;100879.68;;;15.57;100.00
69850;BME280;57144;39.652;-75.770;2022-09-09T11:41:36;100883.17;;;15.55;100.00
69850;BME280;57144;39.652;-75.770;2022-09-09T11:44:10;100881.47;;;15.41;100.00
69850;BME280;57144;39.652;-75.770;2022-09-09T11:46:38;100884.46;;;14.94;100.00
69850;BME280;57144;39.652;-75.770;2022-09-09T11:51:37;100895.35;;;15.44;100.00
69850;BME280;57144;39.652;-75.770;2022-09-09T11:56:43;100908.92;;;15.55;100.00
69850;BME280;57144;39.652;-75.770;2022-09-09T12:01:41;100915.34;;;15.03;100.00
69850;BME280;57144;39.652;-75.770;2022-09-09T12:04:16;100908.59;;;15.44;100.00
69850;BME280;57144;39.652;-75.770;2022-09-09T12:06:46;100910.70;;;16.30;100.00
69850;BME280;57144;39.652;-75.770;2022-09-09T12:09:19;100910.83;;;15.79;100.00
69850;BME280;57144;39.652;-75.770;2022-09-09T12:11:42;100915.78;;;16.37;100.00
69850;BME280;57144;39.652;-75.770;2022-09-09T12:14:19;100919.76;;;16.69;99.90
69850;BME280;57144;39.652;-75.770;2022-09-09T12:16:43;100929.11;;;16.63;100.00
69850;BME280;57144;39.652;-75.770;2022-09-09T12:19:16;100930.26;;;16.50;100.00
69850;BME280;57144;39.652;-75.770;2022-09-09T12:21:51;100931.17;;;16.61;100.00
69850;BME280;57144;39.652;-75.770;2022-09-09T12:24:19;100932.72;;;16.67;99.05
69850;BME280;57144;39.652;-75.770;2022-09-09T12:26:50;100932.84;;;16.60;99.39
69850;BME280;57144;39.652;-75.770;2022-09-09T12:29:24;100934.31;;;17.31;99.13
69850;BME280;57144;39.652;-75.770;2022-09-09T12:31:50;100933.60;;;17.00;100.00
69850;BME280;57144;39.652;-75.770;2022-09-09T12:34:20;100931.06;;;17.29;99.34
69850;BME280;57144;39.652;-75.770;2022-09-09T12:36:52;100932.65;;;17.24;99.34
69850;BME280;57144;39.652;-75.770;2022-09-09T12:39:22;100933.39;;;16.85;100.00
69850;BME280;57144;39.652;-75.770;2022-09-09T12:41:52;100933.86;;;17.20;99.54
69850;BME280;57144;39.652;-75.770;2022-09-09T12:44:19;100939.20;;;17.75;96.82
69850;BME280;57144;39.652;-75.770;2022-09-09T12:46:51;100938.93;;;17.68;98.33
69850;BME280;57144;39.652;-75.770;2022-09-09T12:49:28;100940.62;;;17.27;100.00
69850;BME280;57144;39.652;-75.770;2022-09-09T12:51:51;100942.88;;;17.75;96.58
69850;BME280;57144;39.652;-75.770;2022-09-09T12:54:21;100944.46;;;17.65;96.46
69850;BME280;57144;39.652;-75.770;2022-09-09T12:56:52;100950.51;;;17.94;99.20
69850;BME280;57144;39.652;-75.770;2022-09-09T12:59:24;100949.00;;;17.37;100.00
69850;BME280;57144;39.652;-75.770;2022-09-09T13:01:57;100950.97;;;17.75;99.04
69850;BME280;57144;39.652;-75.770;2022-09-09T13:04:24;100953.11;;;17.98;99.21
69850;BME280;57144;39.652;-75.770;2022-09-09T13:09:25;100955.73;;;17.79;95.62
69850;BME280;57144;39.652;-75.770;2022-09-09T13:11:56;100953.62;;;17.09;98.58
69850;BME280;57144;39.652;-75.770;2022-09-09T13:14:31;100954.75;;;17.37;97.31
69850;BME280;57144;39.652;-75.770;2022-09-09T13:16:58;100954.43;;;17.42;94.78
69850;BME280;57144;39.652;-75.770;2022-09-09T13:19:30;100960.33;;;17.38;96.42
69850;BME280;57144;39.652;-75.770;2022-09-09T13:21:58;100962.57;;;17.11;99.80
69850;BME280;57144;39.652;-75.770;2022-09-09T13:24:31;100966.43;;;17.87;94.87
69850;BME280;57144;39.652;-75.770;2022-09-09T13:27:01;100971.16;;;18.40;93.32
69850;BME280;57144;39.652;-75.770;2022-09-09T13:29:31;100977.27;;;18.69;90.15
69850;BME280;57144;39.652;-75.770;2022-09-09T13:32:04;100977.11;;;18.45;88.78
69850;BME280;57144;39.652;-75.770;2022-09-09T13:34:32;100980.80;;;18.08;91.55
69850;BME280;57144;39.652;-75.770;2022-09-09T13:37:03;100981.69;;;18.71;87.43
69850;BME280;57144;39.652;-75.770;2022-09-09T13:39:34;100982.65;;;18.59;89.09
69850;BME280;57144;39.652;-75.770;2022-09-09T13:42:04;100988.72;;;18.03;90.47
69850;BME280;57144;39.652;-75.770;2022-09-09T13:44:36;100990.84;;;18.20;90.20
69850;BME280;57144;39.652;-75.770;2022-09-09T13:47:05;100996.27;;;18.72;87.26
69850;BME280;57144;39.652;-75.770;2022-09-09T13:49:34;101004.34;;;18.38;90.13
69850;BME280;57144;39.652;-75.770;2022-09-09T13:52:09;101007.45;;;18.34;89.77
69850;BME280;57144;39.652;-75.770;2022-09-09T13:54:35;101007.51;;;19.19;85.54
69850;BME280;57144;39.652;-75.770;2022-09-09T13:57:14;101007.58;;;19.23;85.28
69850;BME280;57144;39.652;-75.770;2022-09-09T13:59:36;101009.42;;;19.30;84.60
69850;BME280;57144;39.652;-75.770;2022-09-09T14:02:07;101007.67;;;19.47;83.79
69850;BME280;57144;39.652;-75.770;2022-09-09T14:04:38;101007.15;;;18.47;87.52
69850;BME280;57144;39.652;-75.770;2022-09-09T14:07:11;101009.62;;;18.95;87.62
69850;BME280;57144;39.652;-75.770;2022-09-09T14:09:39;101013.04;;;18.79;88.73
69850;BME280;57144;39.652;-75.770;2022-09-09T14:12:11;101022.27;;;18.97;86.29
69850;BME280;57144;39.652;-75.770;2022-09-09T14:14:40;101022.21;;;19.54;85.62
69850;BME280;57144;39.652;-75.770;2022-09-09T14:17:11;101021.79;;;19.02;83.68
69850;BME280;57144;39.652;-75.770;2022-09-09T14:19:41;101021.48;;;19.57;85.12
69850;BME280;57144;39.652;-75.770;2022-09-09T14:22:12;101021.08;;;20.34;80.71
69850;BME280;57144;39.652;-75.770;2022-09-09T14:24:42;101023.95;;;19.77;81.30
69850;BME280;57144;39.652;-75.770;2022-09-09T14:27:13;101028.86;;;19.92;82.78
69850;BME280;57144;39.652;-75.770;2022-09-09T14:29:44;101032.52;;;19.87;80.77
69850;BME280;57144;39.652;-75.770;2022-09-09T14:32:14;101041.40;;;19.91;83.13
69850;BME280;57144;39.652;-75.770;2022-09-09T14:34:45;101041.85;;;20.20;79.13
69850;BME280;57144;39.652;-75.770;2022-09-09T14:37:15;101042.70;;;20.48;79.86
69850;BME280;57144;39.652;-75.770;2022-09-09T14:39:46;101040.04;;;20.75;79.09
69850;BME280;57144;39.652;-75.770;2022-09-09T14:42:17;101038.40;;;20.76;76.39
69850;BME280;57144;39.652;-75.770;2022-09-09T14:44:47;101038.51;;;20.61;78.20
69850;BME280;57144;39.652;-75.770;2022-09-09T14:47:18;101039.83;;;20.36;78.39
69850;BME280;57144;39.652;-75.770;2022-09-09T14:49:48;101037.73;;;20.23;80.13
69850;BME280;57144;39.652;-75.770;2022-09-09T14:52:19;101031.72;;;21.04;77.58
69850;BME280;57144;39.652;-75.770;2022-09-09T14:54:49;101033.44;;;20.37;78.01
69850;BME280;57144;39.652;-75.770;2022-09-09T14:57:20;101026.88;;;20.62;74.55
69850;BME280;57144;39.652;-75.770;2022-09-09T14:59:51;101020.30;;;20.94;77.47
69850;BME280;57144;39.652;-75.770;2022-09-09T15:02:21;101022.07;;;21.16;75.75
69850;BME280;57144;39.652;-75.770;2022-09-09T15:04:52;101026.92;;;21.36;72.92
69850;BME280;57144;39.652;-75.770;2022-09-09T15:07:23;101033.13;;;20.78;73.02
69850;BME280;57144;39.652;-75.770;2022-09-09T15:09:54;101033.83;;;20.85;73.71
69850;BME280;57144;39.652;-75.770;2022-09-09T15:12:24;101036.78;;;21.46;72.83
69850;BME280;57144;39.652;-75.770;2022-09-09T15:14:55;101030.03;;;21.27;69.61
69850;BME280;57144;39.652;-75.770;2022-09-09T15:17:25;101031.73;;;20.94;73.12
69850;BME280;57144;39.652;-75.770;2022-09-09T15:19:56;101033.63;;;20.91;73.10
69850;BME280;57144;39.652;-75.770;2022-09-09T15:22:27;101036.60;;;20.80;72.50
69850;BME280;57144;39.652;-75.770;2022-09-09T15:24:57;101041.95;;;20.73;72.70
69850;BME280;57144;39.652;-75.770;2022-09-09T15:27:28;101043.12;;;19.94;74.80
69850;BME280;57144;39.652;-75.770;2022-09-09T15:29:58;101043.14;;;20.31;72.69
69850;BME280;57144;39.652;-75.770;2022-09-09T15:32:29;101038.95;;;20.74;73.01
69850;BME280;57144;39.652;-75.770;2022-09-09T15:35:00;101032.02;;;21.02;71.75
69850;BME280;57144;39.652;-75.770;2022-09-09T15:37:31;101033.00;;;21.02;72.76
69850;BME280;57144;39.652;-75.770;2022-09-09T15:40:02;101033.23;;;20.54;74.60
69850;BME280;57144;39.652;-75.770;2022-09-09T15:42:32;101027.27;;;21.01;69.47
69850;BME280;57144;39.652;-75.770;2022-09-09T15:45:03;101023.50;;;21.56;66.84
69850;BME280;57144;39.652;-75.770;2022-09-09T15:47:33;101022.90;;;20.88;70.31
69850;BME280;57144;39.652;-75.770;2022-09-09T15:50:04;101019.35;;;21.52;68.77
69850;BME280;57144;39.652;-75.770;2022-09-09T15:52:34;101018.61;;;22.19;66.00
69850;BME280;57144;39.652;-75.770;2022-09-09T15:55:06;101018.83;;;21.83;71.16
69850;BME280;57144;39.652;-75.770;2022-09-09T15:57:35;101018.21;;;21.68;67.19
69850;BME280;57144;39.652;-75.770;2022-09-09T16:00:07;101017.33;;;21.06;65.27
69850;BME280;57144;39.652;-75.770;2022-09-09T16:02:37;101013.24;;;21.10;67.57
69850;BME280;57144;39.652;-75.770;2022-09-09T16:05:08;101015.26;;;20.96;65.12
69850;BME280;57144;39.652;-75.770;2022-09-09T16:07:38;101012.03;;;21.47;65.26
69850;BME280;57144;39.652;-75.770;2022-09-09T16:10:09;101010.72;;;21.84;63.06
69850;BME280;57144;39.652;-75.770;2022-09-09T16:12:40;101013.80;;;21.42;63.86
69850;BME280;57144;39.652;-75.770;2022-09-09T16:15:10;101013.98;;;22.32;61.89
69850;BME280;57144;39.652;-75.770;2022-09-09T16:17:41;101009.74;;;22.28;62.24
69850;BME280;57144;39.652;-75.770;2022-09-09T16:20:11;101013.05;;;22.55;64.63
69850;BME280;57144;39.652;-75.770;2022-09-09T16:22:42;101015.95;;;23.03;61.04
69850;BME280;57144;39.652;-75.770;2022-09-09T16:25:12;101014.13;;;22.35;61.18
69850;BME280;57144;39.652;-75.770;2022-09-09T16:27:43;101018.29;;;21.67;64.19
69850;BME280;57144;39.652;-75.770;2022-09-09T16:30:14;101019.79;;;22.27;62.13
69850;BME280;57144;39.652;-75.770;2022-09-09T16:32:44;101017.96;;;21.88;60.90
69850;BME280;57144;39.652;-75.770;2022-09-09T16:35:15;101015.69;;;21.58;62.83
69850;BME280;57144;39.652;-75.770;2022-09-09T16:37:46;101013.66;;;21.89;61.48
69850;BME280;57144;39.652;-75.770;2022-09-09T16:40:16;101012.94;;;21.92;58.12
69850;BME280;57144;39.652;-75.770;2022-09-09T16:42:47;101010.13;;;22.34;61.23
69850;BME280;57144;39.652;-75.770;2022-09-09T16:45:17;101005.12;;;22.35;56.32
69850;BME280;57144;39.652;-75.770;2022-09-09T16:47:48;101004.85;;;22.47;53.20
69850;BME280;57144;39.652;-75.770;2022-09-09T16:50:19;100999.14;;;22.87;54.52
69850;BME280;57144;39.652;-75.770;2022-09-09T16:52:51;101004.18;;;21.92;54.87
69850;BME280;57144;39.652;-75.770;2022-09-09T16:55:20;101004.63;;;22.35;55.93
69850;BME280;57144;39.652;-75.770;2022-09-09T16:57:51;101001.79;;;22.32;54.74
69850;BME280;57144;39.652;-75.770;2022-09-09T17:00:21;101000.00;;;22.68;55.14
69850;BME280;57144;39.652;-75.770;2022-09-09T17:02:52;100994.49;;;22.47;54.00
69850;BME280;57144;39.652;-75.770;2022-09-09T17:05:23;100990.69;;;22.19;53.64
69850;BME280;57144;39.652;-75.770;2022-09-09T17:07:54;100990.96;;;22.57;52.08
69850;BME280;57144;39.652;-75.770;2022-09-09T17:10:24;100985.77;;;21.87;52.91
69850;BME280;57144;39.652;-75.770;2022-09-09T17:12:55;100980.62;;;22.01;54.20
69850;BME280;57144;39.652;-75.770;2022-09-09T17:15:25;100985.79;;;22.75;54.32
69850;BME280;57144;39.652;-75.770;2022-09-09T17:17:56;100981.67;;;22.14;52.67
69850;BME280;57144;39.652;-75.770;2022-09-09T17:20:26;100977.36;;;22.18;54.77
69850;BME280;57144;39.652;-75.770;2022-09-09T17:22:57;100977.80;;;22.92;54.22
69850;BME280;57144;39.652;-75.770;2022-09-09T17:25:28;100977.22;;;22.12;53.44
69850;BME280;57144;39.652;-75.770;2022-09-09T17:27:59;100976.52;;;22.48;51.52
69850;BME280;57144;39.652;-75.770;2022-09-09T17:30:30;100978.56;;;22.62;53.16
69850;BME280;57144;39.652;-75.770;2022-09-09T17:33:00;100977.91;;;22.86;53.47
69850;BME280;57144;39.652;-75.770;2022-09-09T17:35:31;100977.73;;;22.67;53.02
69850;BME280;57144;39.652;-75.770;2022-09-09T17:38:01;100976.88;;;23.04;53.98
69850;BME280;57144;39.652;-75.770;2022-09-09T17:40:32;100971.14;;;22.93;50.53
69850;BME280;57144;39.652;-75.770;2022-09-09T17:43:03;100969.08;;;22.71;48.52
69850;BME280;57144;39.652;-75.770;2022-09-09T17:45:33;100966.45;;;23.39;48.42
69850;BME280;57144;39.652;-75.770;2022-09-09T17:48:04;100966.93;;;23.31;50.29
69850;BME280;57144;39.652;-75.770;2022-09-09T17:50:35;100970.28;;;23.32;48.38
69850;BME280;57144;39.652;-75.770;2022-09-09T17:53:05;100967.25;;;23.41;50.04
69850;BME280;57144;39.652;-75.770;2022-09-09T17:55:36;100972.17;;;23.19;50.02
69850;BME280;57144;39.652;-75.770;2022-09-09T17:58:06;100957.54;;;23.58;49.26
69850;BME280;57144;39.652;-75.770;2022-09-09T18:00:37;100958.24;;;23.40;52.52
69850;BME280;57144;39.652;-75.770;2022-09-09T18:03:08;100961.55;;;23.30;51.94
69850;BME280;57144;39.652;-75.770;2022-09-09T18:07:27;100964.94;;;22.76;51.64
69850;BME280;57144;39.652;-75.770;2022-09-09T18:10:04;100964.06;;;23.01;51.96
69850;BME280;57144;39.652;-75.770;2022-09-09T18:12:28;100959.73;;;23.50;50.57
69850;BME280;57144;39.652;-75.770;2022-09-09T18:14:59;100966.36;;;23.08;49.11
69850;BME280;57144;39.652;-75.770;2022-09-09T18:17:29;100963.74;;;23.69;50.48
69850;BME280;57144;39.652;-75.770;2022-09-09T18:20:00;100963.16;;;23.51;48.92
69850;BME280;57144;39.652;-75.770;2022-09-09T18:22:32;100957.86;;;23.99;49.49
69850;BME280;57144;39.652;-75.770;2022-09-09T18:25:01;100958.26;;;24.04;50.74
69850;BME280;57144;39.652;-75.770;2022-09-09T18:27:32;100957.49;;;23.52;50.22
69850;BME280;57144;39.652;-75.770;2022-09-09T18:30:03;100955.56;;;23.41;48.33
69850;BME280;57144;39.652;-75.770;2022-09-09T18:32:33;100961.69;;;23.79;51.23
69850;BME280;57144;39.652;-75.770;2022-09-09T18:35:04;100966.53;;;23.26;48.72
69850;BME280;57144;39.652;-75.770;2022-09-09T18:37:34;100968.65;;;23.85;49.61
69850;BME280;57144;39.652;-75.770;2022-09-09T18:40:06;100963.24;;;23.24;49.35
69850;BME280;57144;39.652;-75.770;2022-09-09T18:42:35;100955.95;;;23.37;50.31
69850;BME280;57144;39.652;-75.770;2022-09-09T18:45:07;100945.88;;;24.22;48.07